sensor_id;sensor_type;location;lat;lon;timestamp;temperature;humidity
23669;DHT22;12011;47.422;15.018;2023-05-14T00:00:50;9.10;99.90
23669;DHT22;12011;47.422;15.018;2023-05-14T00:03:23;9.20;99.90
23669;DHT22;12011;47.422;15.018;2023-05-14T00:06:01;9.20;99.90
23669;DHT22;12011;47.422;15.018;2023-05-14T00:08:33;9.10;99.90
23669;DHT22;12011;47.422;15.018;2023-05-14T00:11:12;9.10;99.90
23669;DHT22;12011;47.422;15.018;2023-05-14T00:13:46;9.10;99.90
23669;DHT22;12011;47.422;15.018;2023-05-14T00:16:22;9.10;99.90
23669;DHT22;12011;47.422;15.018;2023-05-14T00:18:52;9.00;99.90
23669;DHT22;12011;47.422;15.018;2023-05-14T00:21:24;9.00;99.90
23669;DHT22;12011;47.422;15.018;2023-05-14T00:23:55;9.00;99.90
23669;DHT22;12011;47.422;15.018;2023-05-14T00:26:35;9.00;99.90
23669;DHT22;12011;47.422;15.018;2023-05-14T00:29:07;8.90;99.90
23669;DHT22;12011;47.422;15.018;2023-05-14T00:31:45;8.90;99.90
23669;DHT22;12011;47.422;15.018;2023-05-14T00:34:19;8.90;99.90
23669;DHT22;12011;47.422;15.018;2023-05-14T00:36:50;8.90;99.90
23669;DHT22;12011;47.422;15.018;2023-05-14T00:39:19;8.90;99.90
23669;DHT22;12011;47.422;15.018;2023-05-14T00:41:55;8.90;99.90
23669;DHT22;12011;47.422;15.018;2023-05-14T00:44:26;9.00;99.90
23669;DHT22;12011;47.422;15.018;2023-05-14T00:47:01;9.00;99.90
23669;DHT22;12011;47.422;15.018;2023-05-14T00:49:39;9.00;99.90
23669;DHT22;12011;47.422;15.018;2023-05-14T00:52:13;9.00;99.90
23669;DHT22;12011;47.422;15.018;2023-05-14T00:54:51;8.90;99.90
23669;DHT22;12011;47.422;15.018;2023-05-14T00:57:24;8.90;99.90
23669;DHT22;12011;47.422;15.018;2023-05-14T00:59:59;8.90;99.90
23669;DHT22;12011;47.422;15.018;2023-05-14T01:02:32;9.00;99.90
23669;DHT22;12011;47.422;15.018;2023-05-14T01:05:07;9.00;99.90
23669;DHT22;12011;47.422;15.018;2023-05-14T01:07:53;9.00;99.90
23669;DHT22;12011;47.422;15.018;2023-05-14T01:10:34;9.00;99.90
23669;DHT22;12011;47.422;15.018;2023-05-14T01:13:21;9.00;99.90
23669;DHT22;12011;47.422;15.018;2023-05-14T01:16:02;8.90;99.90
23669;DHT22;12011;47.422;15.018;2023-05-14T01:18:33;8.90;99.90
23669;DHT22;12011;47.422;15.018;2023-05-14T01:21:05;8.90;99.90
23669;DHT22;12011;47.422;15.018;2023-05-14T01:23:53;8.90;99.90
23669;DHT22;12011;47.422;15.018;2023-05-14T01:26:38;8.90;99.90
23669;DHT22;12011;47.422;15.018;2023-05-14T01:29:20;8.90;99.90
23669;DHT22;12011;47.422;15.018;2023-05-14T01:31:56;8.90;99.90
23669;DHT22;12011;47.422;15.018;2023-05-14T01:34:30;8.90;99.90
23669;DHT22;12011;47.422;15.018;2023-05-14T01:37:05;8.90;99.90
23669;DHT22;12011;47.422;15.018;2023-05-14T01:39:42;8.90;99.90
23669;DHT22;12011;47.422;15.018;2023-05-14T01:42:18;8.90;99.90
23669;DHT22;12011;47.422;15.018;2023-05-14T01:44:52;8.90;99.90
23669;DHT22;12011;47.422;15.018;2023-05-14T01:47:24;8.90;99.90
23669;DHT22;12011;47.422;15.018;2023-05-14T01:49:58;8.90;99.90
23669;DHT22;12011;47.422;15.018;2023-05-14T01:52:32;8.90;99.90
23669;DHT22;12011;47.422;15.018;2023-05-14T01:55:06;8.90;99.90
23669;DHT22;12011;47.422;15.018;2023-05-14T01:57:42;8.90;99.90
23669;DHT22;12011;47.422;15.018;2023-05-14T02:00:14;8.90;99.90
23669;DHT22;12011;47.422;15.018;2023-05-14T02:02:47;8.90;99.90
23669;DHT22;12011;47.422;15.018;2023-05-14T02:05:20;8.90;99.90
23669;DHT22;12011;47.422;15.018;2023-05-14T02:07:57;8.90;99.90
23669;DHT22;12011;47.422;15.018;2023-05-14T02:10:39;8.90;99.90
23669;DHT22;12011;47.422;15.018;2023-05-14T02:13:13;8.90;99.90
23669;DHT22;12011;47.422;15.018;2023-05-14T02:15:45;9.00;99.90
23669;DHT22;12011;47.422;15.018;2023-05-14T02:18:20;9.00;99.90
23669;DHT22;12011;47.422;15.018;2023-05-14T02:20:56;9.00;99.90
23669;DHT22;12011;47.422;15.018;2023-05-14T02:23:33;9.00;99.90
23669;DHT22;12011;47.422;15.018;2023-05-14T02:26:13;9.00;99.90
23669;DHT22;12011;47.422;15.018;2023-05-14T02:28:49;9.00;99.90
23669;DHT22;12011;47.422;15.018;2023-05-14T02:31:20;9.00;99.90
23669;DHT22;12011;47.422;15.018;2023-05-14T02:33:58;9.00;99.90
23669;DHT22;12011;47.422;15.018;2023-05-14T02:36:30;8.90;99.90
23669;DHT22;12011;47.422;15.018;2023-05-14T02:39:12;9.00;99.90
23669;DHT22;12011;47.422;15.018;2023-05-14T02:41:47;9.00;99.90
23669;DHT22;12011;47.422;15.018;2023-05-14T02:44:19;9.00;99.90
23669;DHT22;12011;47.422;15.018;2023-05-14T02:46:53;9.00;99.90
23669;DHT22;12011;47.422;15.018;2023-05-14T02:49:25;9.00;99.90
23669;DHT22;12011;47.422;15.018;2023-05-14T02:51:57;8.90;99.90
23669;DHT22;12011;47.422;15.018;2023-05-14T02:54:28;8.90;99.90
23669;DHT22;12011;47.422;15.018;2023-05-14T02:57:02;8.90;99.90
23669;DHT22;12011;47.422;15.018;2023-05-14T02:59:39;8.90;99.90
23669;DHT22;12011;47.422;15.018;2023-05-14T03:02:12;8.90;99.90
23669;DHT22;12011;47.422;15.018;2023-05-14T03:04:44;8.90;99.90
23669;DHT22;12011;47.422;15.018;2023-05-14T03:07:15;8.90;99.90
23669;DHT22;12011;47.422;15.018;2023-05-14T03:09:47;8.90;99.90
23669;DHT22;12011;47.422;15.018;2023-05-14T03:12:23;8.90;99.90
23669;DHT22;12011;47.422;15.018;2023-05-14T03:15:00;8.90;99.90
23669;DHT22;12011;47.422;15.018;2023-05-14T03:17:41;8.90;99.90
23669;DHT22;12011;47.422;15.018;2023-05-14T03:20:13;9.00;99.90
23669;DHT22;12011;47.422;15.018;2023-05-14T03:22:46;8.90;99.90
23669;DHT22;12011;47.422;15.018;2023-05-14T03:25:20;9.00;99.90
23669;DHT22;12011;47.422;15.018;2023-05-14T03:27:58;8.90;99.90
23669;DHT22;12011;47.422;15.018;2023-05-14T03:30:28;9.00;99.90
23669;DHT22;12011;47.422;15.018;2023-05-14T03:33:00;9.00;99.90
23669;DHT22;12011;47.422;15.018;2023-05-14T03:35:41;9.00;99.90
23669;DHT22;12011;47.422;15.018;2023-05-14T03:38:22;9.00;99.90
23669;DHT22;12011;47.422;15.018;2023-05-14T03:40:59;9.00;99.90
23669;DHT22;12011;47.422;15.018;2023-05-14T03:43:37;9.00;99.90
23669;DHT22;12011;47.422;15.018;2023-05-14T03:46:06;8.90;99.90
23669;DHT22;12011;47.422;15.018;2023-05-14T03:48:42;8.90;99.90
23669;DHT22;12011;47.422;15.018;2023-05-14T03:51:16;8.90;99.90
23669;DHT22;12011;47.422;15.018;2023-05-14T03:53:49;8.90;99.90
23669;DHT22;12011;47.422;15.018;2023-05-14T03:56:20;8.90;99.90
23669;DHT22;12011;47.422;15.018;2023-05-14T03:58:55;8.90;99.90
23669;DHT22;12011;47.422;15.018;2023-05-14T04:01:29;9.00;99.90
23669;DHT22;12011;47.422;15.018;2023-05-14T04:04:04;8.90;99.90
23669;DHT22;12011;47.422;15.018;2023-05-14T04:06:42;9.00;99.90
23669;DHT22;12011;47.422;15.018;2023-05-14T04:09:17;9.00;99.90
23669;DHT22;12011;47.422;15.018;2023-05-14T04:11:49;9.00;99.90
23669;DHT22;12011;47.422;15.018;2023-05-14T04:14:26;9.00;99.90
23669;DHT22;12011;47.422;15.018;2023-05-14T04:17:00;9.10;99.90
23669;DHT22;12011;47.422;15.018;2023-05-14T04:19:32;9.10;99.90
23669;DHT22;12011;47.422;15.018;2023-05-14T04:22:03;9.10;99.90
23669;DHT22;12011;47.422;15.018;2023-05-14T04:24:35;9.10;99.90
23669;DHT22;12011;47.422;15.018;2023-05-14T04:27:06;9.20;99.90
23669;DHT22;12011;47.422;15.018;2023-05-14T04:29:40;9.20;99.90
23669;DHT22;12011;47.422;15.018;2023-05-14T04:32:18;9.20;99.90
23669;DHT22;12011;47.422;15.018;2023-05-14T04:34:51;9.20;99.90
23669;DHT22;12011;47.422;15.018;2023-05-14T04:37:28;9.20;99.90
23669;DHT22;12011;47.422;15.018;2023-05-14T04:40:15;9.10;99.90
23669;DHT22;12011;47.422;15.018;2023-05-14T04:42:47;9.10;99.90
23669;DHT22;12011;47.422;15.018;2023-05-14T04:45:24;9.10;99.90
23669;DHT22;12011;47.422;15.018;2023-05-14T04:48:01;9.10;99.90
23669;DHT22;12011;47.422;15.018;2023-05-14T04:50:38;9.10;99.90
23669;DHT22;12011;47.422;15.018;2023-05-14T04:53:13;9.10;99.90
23669;DHT22;12011;47.422;15.018;2023-05-14T04:55:45;9.10;99.90
23669;DHT22;12011;47.422;15.018;2023-05-14T04:58:18;9.20;99.90
23669;DHT22;12011;47.422;15.018;2023-05-14T05:00:52;9.20;99.90
23669;DHT22;12011;47.422;15.018;2023-05-14T05:03:27;9.20;99.90
23669;DHT22;12011;47.422;15.018;2023-05-14T05:05:58;9.30;99.90
23669;DHT22;12011;47.422;15.018;2023-05-14T05:11:01;9.30;99.90
23669;DHT22;12011;47.422;15.018;2023-05-14T05:13:40;9.30;99.90
23669;DHT22;12011;47.422;15.018;2023-05-14T05:16:15;9.40;99.90
23669;DHT22;12011;47.422;15.018;2023-05-14T05:18:53;9.40;99.90
23669;DHT22;12011;47.422;15.018;2023-05-14T05:21:27;9.30;99.90
23669;DHT22;12011;47.422;15.018;2023-05-14T05:23:59;9.50;99.90
23669;DHT22;12011;47.422;15.018;2023-05-14T05:26:36;9.50;99.90
23669;DHT22;12011;47.422;15.018;2023-05-14T05:31:59;9.60;99.90
23669;DHT22;12011;47.422;15.018;2023-05-14T05:34:33;9.70;99.90
23669;DHT22;12011;47.422;15.018;2023-05-14T05:37:14;9.80;99.90
23669;DHT22;12011;47.422;15.018;2023-05-14T05:39:48;9.80;99.90
23669;DHT22;12011;47.422;15.018;2023-05-14T05:42:20;9.80;99.90
23669;DHT22;12011;47.422;15.018;2023-05-14T05:44:54;9.80;99.90
23669;DHT22;12011;47.422;15.018;2023-05-14T05:47:26;9.80;99.90
23669;DHT22;12011;47.422;15.018;2023-05-14T05:49:56;9.80;99.90
23669;DHT22;12011;47.422;15.018;2023-05-14T05:52:26;9.80;99.90
23669;DHT22;12011;47.422;15.018;2023-05-14T05:54:55;9.90;99.90
23669;DHT22;12011;47.422;15.018;2023-05-14T05:57:26;10.00;99.90
23669;DHT22;12011;47.422;15.018;2023-05-14T05:59:56;9.90;99.90
23669;DHT22;12011;47.422;15.018;2023-05-14T06:02:37;9.90;99.90
23669;DHT22;12011;47.422;15.018;2023-05-14T06:05:09;9.90;99.90
23669;DHT22;12011;47.422;15.018;2023-05-14T06:07:38;10.00;99.90
23669;DHT22;12011;47.422;15.018;2023-05-14T06:10:08;10.00;99.90
23669;DHT22;12011;47.422;15.018;2023-05-14T06:12:38;10.00;99.90
23669;DHT22;12011;47.422;15.018;2023-05-14T06:15:08;10.00;99.90
23669;DHT22;12011;47.422;15.018;2023-05-14T06:17:41;9.90;99.90
23669;DHT22;12011;47.422;15.018;2023-05-14T06:20:11;10.00;99.90
23669;DHT22;12011;47.422;15.018;2023-05-14T06:22:41;10.00;99.90
23669;DHT22;12011;47.422;15.018;2023-05-14T06:25:11;10.00;99.90
23669;DHT22;12011;47.422;15.018;2023-05-14T06:27:41;10.00;99.90
23669;DHT22;12011;47.422;15.018;2023-05-14T06:30:14;10.10;99.90
23669;DHT22;12011;47.422;15.018;2023-05-14T06:32:47;10.10;99.90
23669;DHT22;12011;47.422;15.018;2023-05-14T06:35:17;10.20;99.90
23669;DHT22;12011;47.422;15.018;2023-05-14T06:37:47;10.30;99.90
23669;DHT22;12011;47.422;15.018;2023-05-14T06:40:20;10.30;99.90
23669;DHT22;12011;47.422;15.018;2023-05-14T06:42:49;10.30;99.90
23669;DHT22;12011;47.422;15.018;2023-05-14T06:45:19;10.40;99.90
23669;DHT22;12011;47.422;15.018;2023-05-14T06:47:51;10.40;99.90
23669;DHT22;12011;47.422;15.018;2023-05-14T06:50:21;10.40;99.90
23669;DHT22;12011;47.422;15.018;2023-05-14T06:52:50;10.50;99.90
23669;DHT22;12011;47.422;15.018;2023-05-14T06:55:21;10.50;99.90
23669;DHT22;12011;47.422;15.018;2023-05-14T06:57:51;10.60;99.90
23669;DHT22;12011;47.422;15.018;2023-05-14T07:00:24;10.60;99.90
23669;DHT22;12011;47.422;15.018;2023-05-14T07:02:56;10.60;99.90
23669;DHT22;12011;47.422;15.018;2023-05-14T07:05:26;10.70;99.90
23669;DHT22;12011;47.422;15.018;2023-05-14T07:07:56;10.80;99.90
23669;DHT22;12011;47.422;15.018;2023-05-14T07:10:25;10.90;99.90
23669;DHT22;12011;47.422;15.018;2023-05-14T07:12:56;10.90;99.90
23669;DHT22;12011;47.422;15.018;2023-05-14T07:15:26;11.00;99.90
23669;DHT22;12011;47.422;15.018;2023-05-14T07:17:58;11.00;99.90
23669;DHT22;12011;47.422;15.018;2023-05-14T07:20:31;11.00;99.90
23669;DHT22;12011;47.422;15.018;2023-05-14T07:23:00;10.90;99.90
23669;DHT22;12011;47.422;15.018;2023-05-14T07:25:30;11.00;99.90
23669;DHT22;12011;47.422;15.018;2023-05-14T07:28:00;10.90;99.90
23669;DHT22;12011;47.422;15.018;2023-05-14T07:30:30;11.10;99.90
23669;DHT22;12011;47.422;15.018;2023-05-14T07:33:02;11.20;99.90
23669;DHT22;12011;47.422;15.018;2023-05-14T07:35:32;11.20;99.90
23669;DHT22;12011;47.422;15.018;2023-05-14T07:38:02;11.30;99.90
23669;DHT22;12011;47.422;15.018;2023-05-14T07:40:33;11.30;99.90
23669;DHT22;12011;47.422;15.018;2023-05-14T07:43:02;11.30;99.90
23669;DHT22;12011;47.422;15.018;2023-05-14T07:45:40;11.40;99.90
23669;DHT22;12011;47.422;15.018;2023-05-14T07:48:20;11.40;99.90
23669;DHT22;12011;47.422;15.018;2023-05-14T07:50:52;11.50;99.90
23669;DHT22;12011;47.422;15.018;2023-05-14T07:53:23;11.70;99.90
23669;DHT22;12011;47.422;15.018;2023-05-14T07:55:53;11.70;99.90
23669;DHT22;12011;47.422;15.018;2023-05-14T07:58:23;11.80;99.90
23669;DHT22;12011;47.422;15.018;2023-05-14T08:00:54;11.90;99.90
23669;DHT22;12011;47.422;15.018;2023-05-14T08:03:29;11.90;99.90
23669;DHT22;12011;47.422;15.018;2023-05-14T08:05:58;11.90;99.90
23669;DHT22;12011;47.422;15.018;2023-05-14T08:08:29;12.00;99.90
23669;DHT22;12011;47.422;15.018;2023-05-14T08:10:58;12.00;99.90
23669;DHT22;12011;47.422;15.018;2023-05-14T08:13:28;12.00;99.90
23669;DHT22;12011;47.422;15.018;2023-05-14T08:15:57;11.90;99.90
23669;DHT22;12011;47.422;15.018;2023-05-14T08:18:30;12.00;99.90
23669;DHT22;12011;47.422;15.018;2023-05-14T08:21:00;11.90;99.90
23669;DHT22;12011;47.422;15.018;2023-05-14T08:23:30;11.90;99.90
23669;DHT22;12011;47.422;15.018;2023-05-14T08:26:00;11.90;99.90
23669;DHT22;12011;47.422;15.018;2023-05-14T08:28:30;11.90;99.90
23669;DHT22;12011;47.422;15.018;2023-05-14T08:31:00;11.90;99.90
23669;DHT22;12011;47.422;15.018;2023-05-14T08:33:33;11.70;99.90
23669;DHT22;12011;47.422;15.018;2023-05-14T08:36:03;11.70;99.90
23669;DHT22;12011;47.422;15.018;2023-05-14T08:38:33;11.70;99.90
23669;DHT22;12011;47.422;15.018;2023-05-14T08:41:05;11.70;99.90
23669;DHT22;12011;47.422;15.018;2023-05-14T08:43:50;11.50;99.90
23669;DHT22;12011;47.422;15.018;2023-05-14T08:46:29;11.50;99.90
23669;DHT22;12011;47.422;15.018;2023-05-14T08:49:09;11.50;99.90
23669;DHT22;12011;47.422;15.018;2023-05-14T08:51:45;11.80;99.90
23669;DHT22;12011;47.422;15.018;2023-05-14T08:54:16;11.80;99.90
23669;DHT22;12011;47.422;15.018;2023-05-14T08:56:50;11.80;99.90
23669;DHT22;12011;47.422;15.018;2023-05-14T08:59:21;11.70;99.90
23669;DHT22;12011;47.422;15.018;2023-05-14T09:01:54;11.50;99.90
23669;DHT22;12011;47.422;15.018;2023-05-14T09:04:27;11.50;99.90
23669;DHT22;12011;47.422;15.018;2023-05-14T09:07:00;11.50;99.90
23669;DHT22;12011;47.422;15.018;2023-05-14T09:09:30;11.50;99.90
23669;DHT22;12011;47.422;15.018;2023-05-14T09:12:00;11.60;99.90
23669;DHT22;12011;47.422;15.018;2023-05-14T09:14:31;11.60;99.90
23669;DHT22;12011;47.422;15.018;2023-05-14T09:17:01;11.70;99.90
23669;DHT22;12011;47.422;15.018;2023-05-14T09:19:34;11.70;99.90
23669;DHT22;12011;47.422;15.018;2023-05-14T09:22:08;11.70;99.90
23669;DHT22;12011;47.422;15.018;2023-05-14T09:24:39;11.80;99.90
23669;DHT22;12011;47.422;15.018;2023-05-14T09:27:17;11.90;99.90
23669;DHT22;12011;47.422;15.018;2023-05-14T09:29:47;11.90;99.90
23669;DHT22;12011;47.422;15.018;2023-05-14T09:32:17;11.90;99.90
23669;DHT22;12011;47.422;15.018;2023-05-14T09:34:49;12.00;99.90
23669;DHT22;12011;47.422;15.018;2023-05-14T09:37:19;12.10;99.90
23669;DHT22;12011;47.422;15.018;2023-05-14T09:39:52;12.30;99.90
23669;DHT22;12011;47.422;15.018;2023-05-14T09:42:22;12.40;99.90
23669;DHT22;12011;47.422;15.018;2023-05-14T09:44:52;12.50;99.90
23669;DHT22;12011;47.422;15.018;2023-05-14T09:47:23;12.70;99.90
23669;DHT22;12011;47.422;15.018;2023-05-14T09:49:55;12.80;99.90
23669;DHT22;12011;47.422;15.018;2023-05-14T09:52:25;13.00;99.90
23669;DHT22;12011;47.422;15.018;2023-05-14T09:54:55;13.00;99.90
23669;DHT22;12011;47.422;15.018;2023-05-14T09:57:25;13.10;99.90
23669;DHT22;12011;47.422;15.018;2023-05-14T09:59:55;13.10;99.90
23669;DHT22;12011;47.422;15.018;2023-05-14T10:02:29;13.20;99.90
23669;DHT22;12011;47.422;15.018;2023-05-14T10:05:06;13.10;99.90
23669;DHT22;12011;47.422;15.018;2023-05-14T10:07:41;13.00;99.90
23669;DHT22;12011;47.422;15.018;2023-05-14T10:10:15;12.90;99.90
23669;DHT22;12011;47.422;15.018;2023-05-14T10:12:52;12.90;99.90
23669;DHT22;12011;47.422;15.018;2023-05-14T10:15:32;12.70;99.90
23669;DHT22;12011;47.422;15.018;2023-05-14T10:18:09;12.50;99.90
23669;DHT22;12011;47.422;15.018;2023-05-14T10:20:47;12.30;99.90
23669;DHT22;12011;47.422;15.018;2023-05-14T10:23:21;12.10;99.90
23669;DHT22;12011;47.422;15.018;2023-05-14T10:25:51;12.00;99.90
23669;DHT22;12011;47.422;15.018;2023-05-14T10:28:21;12.00;99.90
23669;DHT22;12011;47.422;15.018;2023-05-14T10:30:51;12.20;99.90
23669;DHT22;12011;47.422;15.018;2023-05-14T10:33:22;12.40;99.90
23669;DHT22;12011;47.422;15.018;2023-05-14T10:36:03;12.70;99.90
23669;DHT22;12011;47.422;15.018;2023-05-14T10:38:35;12.90;99.90
23669;DHT22;12011;47.422;15.018;2023-05-14T10:41:12;13.20;99.90
23669;DHT22;12011;47.422;15.018;2023-05-14T10:43:47;13.40;99.90
23669;DHT22;12011;47.422;15.018;2023-05-14T10:46:26;13.60;99.90
23669;DHT22;12011;47.422;15.018;2023-05-14T10:48:56;13.70;99.90
23669;DHT22;12011;47.422;15.018;2023-05-14T10:51:29;13.70;99.90
23669;DHT22;12011;47.422;15.018;2023-05-14T10:54:05;13.80;99.90
23669;DHT22;12011;47.422;15.018;2023-05-14T10:56:46;13.80;99.90
23669;DHT22;12011;47.422;15.018;2023-05-14T10:59:17;13.90;99.90
23669;DHT22;12011;47.422;15.018;2023-05-14T11:01:51;13.30;99.90
23669;DHT22;12011;47.422;15.018;2023-05-14T11:04:23;13.80;99.90
23669;DHT22;12011;47.422;15.018;2023-05-14T11:06:59;13.10;99.90
23669;DHT22;12011;47.422;15.018;2023-05-14T11:09:29;13.40;99.90
23669;DHT22;12011;47.422;15.018;2023-05-14T11:11:59;13.30;99.90
23669;DHT22;12011;47.422;15.018;2023-05-14T11:14:31;13.20;99.90
23669;DHT22;12011;47.422;15.018;2023-05-14T11:17:01;12.90;99.90
23669;DHT22;12011;47.422;15.018;2023-05-14T11:19:31;13.00;99.90
23669;DHT22;12011;47.422;15.018;2023-05-14T11:22:03;13.00;99.90
23669;DHT22;12011;47.422;15.018;2023-05-14T11:24:33;13.10;99.90
23669;DHT22;12011;47.422;15.018;2023-05-14T11:27:04;13.30;99.90
23669;DHT22;12011;47.422;15.018;2023-05-14T11:29:35;13.20;99.90
23669;DHT22;12011;47.422;15.018;2023-05-14T11:32:06;13.20;99.90
23669;DHT22;12011;47.422;15.018;2023-05-14T11:34:36;13.20;99.90
23669;DHT22;12011;47.422;15.018;2023-05-14T11:37:09;13.30;99.90
23669;DHT22;12011;47.422;15.018;2023-05-14T11:39:45;13.40;99.90
23669;DHT22;12011;47.422;15.018;2023-05-14T11:42:16;13.30;99.90
23669;DHT22;12011;47.422;15.018;2023-05-14T11:44:49;13.40;99.90
23669;DHT22;12011;47.422;15.018;2023-05-14T11:47:21;13.40;99.90
23669;DHT22;12011;47.422;15.018;2023-05-14T11:49:52;13.30;99.90
23669;DHT22;12011;47.422;15.018;2023-05-14T11:52:24;13.30;99.90
23669;DHT22;12011;47.422;15.018;2023-05-14T11:54:57;13.20;99.90
23669;DHT22;12011;47.422;15.018;2023-05-14T11:57:30;13.20;99.90
23669;DHT22;12011;47.422;15.018;2023-05-14T11:59:59;13.30;99.90
23669;DHT22;12011;47.422;15.018;2023-05-14T12:02:31;13.10;99.90
23669;DHT22;12011;47.422;15.018;2023-05-14T12:05:14;13.00;99.90
23669;DHT22;12011;47.422;15.018;2023-05-14T12:07:48;12.90;99.90
23669;DHT22;12011;47.422;15.018;2023-05-14T12:10:23;12.90;99.90
23669;DHT22;12011;47.422;15.018;2023-05-14T12:12:58;12.90;99.90
23669;DHT22;12011;47.422;15.018;2023-05-14T12:15:31;12.90;99.90
23669;DHT22;12011;47.422;15.018;2023-05-14T12:18:01;12.80;99.90
23669;DHT22;12011;47.422;15.018;2023-05-14T12:20:42;12.70;99.90
23669;DHT22;12011;47.422;15.018;2023-05-14T12:23:25;12.60;99.90
23669;DHT22;12011;47.422;15.018;2023-05-14T12:26:01;12.60;99.90
23669;DHT22;12011;47.422;15.018;2023-05-14T12:28:32;12.50;99.90
23669;DHT22;12011;47.422;15.018;2023-05-14T12:31:06;12.40;99.90
23669;DHT22;12011;47.422;15.018;2023-05-14T12:33:38;12.30;99.90
23669;DHT22;12011;47.422;15.018;2023-05-14T12:36:08;12.30;99.90
23669;DHT22;12011;47.422;15.018;2023-05-14T12:38:42;12.30;99.90
23669;DHT22;12011;47.422;15.018;2023-05-14T12:41:12;12.30;99.90
23669;DHT22;12011;47.422;15.018;2023-05-14T12:43:43;12.20;99.90
23669;DHT22;12011;47.422;15.018;2023-05-14T12:46:13;12.20;99.90
23669;DHT22;12011;47.422;15.018;2023-05-14T12:48:42;12.40;99.90
23669;DHT22;12011;47.422;15.018;2023-05-14T12:51:12;12.50;99.90
23669;DHT22;12011;47.422;15.018;2023-05-14T12:53:44;12.40;99.90
23669;DHT22;12011;47.422;15.018;2023-05-14T12:56:14;12.50;99.90
23669;DHT22;12011;47.422;15.018;2023-05-14T12:58:44;12.60;99.90
23669;DHT22;12011;47.422;15.018;2023-05-14T13:01:14;12.50;99.90
23669;DHT22;12011;47.422;15.018;2023-05-14T13:03:43;12.40;99.90
23669;DHT22;12011;47.422;15.018;2023-05-14T13:06:13;12.30;99.90
23669;DHT22;12011;47.422;15.018;2023-05-14T13:08:45;12.20;99.90
23669;DHT22;12011;47.422;15.018;2023-05-14T13:11:15;12.20;99.90
23669;DHT22;12011;47.422;15.018;2023-05-14T13:13:44;12.10;99.90
23669;DHT22;12011;47.422;15.018;2023-05-14T13:16:14;12.10;99.90
23669;DHT22;12011;47.422;15.018;2023-05-14T13:18:43;12.10;99.90
23669;DHT22;12011;47.422;15.018;2023-05-14T13:21:13;12.10;99.90
23669;DHT22;12011;47.422;15.018;2023-05-14T13:23:46;12.00;99.90
23669;DHT22;12011;47.422;15.018;2023-05-14T13:26:15;12.00;99.90
23669;DHT22;12011;47.422;15.018;2023-05-14T13:28:45;11.90;99.90
23669;DHT22;12011;47.422;15.018;2023-05-14T13:31:15;11.80;99.90
23669;DHT22;12011;47.422;15.018;2023-05-14T13:33:44;11.60;99.90
23669;DHT22;12011;47.422;15.018;2023-05-14T13:36:14;11.60;99.90
23669;DHT22;12011;47.422;15.018;2023-05-14T13:38:46;11.50;99.90
23669;DHT22;12011;47.422;15.018;2023-05-14T13:41:16;11.40;99.90
23669;DHT22;12011;47.422;15.018;2023-05-14T13:43:46;11.30;99.90
23669;DHT22;12011;47.422;15.018;2023-05-14T13:46:16;11.20;99.90
23669;DHT22;12011;47.422;15.018;2023-05-14T13:48:46;11.10;99.90
23669;DHT22;12011;47.422;15.018;2023-05-14T13:51:15;11.30;99.90
23669;DHT22;12011;47.422;15.018;2023-05-14T13:53:48;11.10;99.90
23669;DHT22;12011;47.422;15.018;2023-05-14T13:56:18;11.10;99.90
23669;DHT22;12011;47.422;15.018;2023-05-14T13:58:48;11.20;99.90
23669;DHT22;12011;47.422;15.018;2023-05-14T14:01:18;11.20;99.90
23669;DHT22;12011;47.422;15.018;2023-05-14T14:03:48;11.20;99.90
23669;DHT22;12011;47.422;15.018;2023-05-14T14:06:17;11.30;99.90
23669;DHT22;12011;47.422;15.018;2023-05-14T14:08:50;11.20;99.90
23669;DHT22;12011;47.422;15.018;2023-05-14T14:11:19;11.20;99.90
23669;DHT22;12011;47.422;15.018;2023-05-14T14:13:49;11.10;99.90
23669;DHT22;12011;47.422;15.018;2023-05-14T14:16:19;10.90;99.90
23669;DHT22;12011;47.422;15.018;2023-05-14T14:18:51;10.80;99.90
23669;DHT22;12011;47.422;15.018;2023-05-14T14:21:22;10.80;99.90
23669;DHT22;12011;47.422;15.018;2023-05-14T14:23:55;10.70;99.90
23669;DHT22;12011;47.422;15.018;2023-05-14T14:26:25;10.70;99.90
23669;DHT22;12011;47.422;15.018;2023-05-14T14:28:55;10.70;99.90
23669;DHT22;12011;47.422;15.018;2023-05-14T14:31:25;10.70;99.90
23669;DHT22;12011;47.422;15.018;2023-05-14T14:33:54;10.70;99.90
23669;DHT22;12011;47.422;15.018;2023-05-14T14:36:24;10.70;99.90
23669;DHT22;12011;47.422;15.018;2023-05-14T14:38:56;10.60;99.90
23669;DHT22;12011;47.422;15.018;2023-05-14T14:41:26;10.70;99.90
23669;DHT22;12011;47.422;15.018;2023-05-14T14:43:56;10.70;99.90
23669;DHT22;12011;47.422;15.018;2023-05-14T14:46:27;10.60;99.90
23669;DHT22;12011;47.422;15.018;2023-05-14T14:48:57;10.70;99.90
23669;DHT22;12011;47.422;15.018;2023-05-14T14:51:27;10.70;99.90
23669;DHT22;12011;47.422;15.018;2023-05-14T14:53:59;10.70;99.90
23669;DHT22;12011;47.422;15.018;2023-05-14T14:56:30;10.80;99.90
23669;DHT22;12011;47.422;15.018;2023-05-14T14:59:00;10.90;99.90
23669;DHT22;12011;47.422;15.018;2023-05-14T15:01:30;10.90;99.90
23669;DHT22;12011;47.422;15.018;2023-05-14T15:03:59;10.90;99.90
23669;DHT22;12011;47.422;15.018;2023-05-14T15:06:29;10.80;99.90
23669;DHT22;12011;47.422;15.018;2023-05-14T15:09:01;10.90;99.90
23669;DHT22;12011;47.422;15.018;2023-05-14T15:11:31;10.80;99.90
23669;DHT22;12011;47.422;15.018;2023-05-14T15:14:00;10.70;99.90
23669;DHT22;12011;47.422;15.018;2023-05-14T15:16:30;10.70;99.90
23669;DHT22;12011;47.422;15.018;2023-05-14T15:18:59;10.70;99.90
23669;DHT22;12011;47.422;15.018;2023-05-14T15:21:29;10.60;99.90
23669;DHT22;12011;47.422;15.018;2023-05-14T15:24:02;10.60;99.90
23669;DHT22;12011;47.422;15.018;2023-05-14T15:26:32;10.50;99.90
23669;DHT22;12011;47.422;15.018;2023-05-14T15:29:02;10.40;99.90
23669;DHT22;12011;47.422;15.018;2023-05-14T15:31:31;10.50;99.90
23669;DHT22;12011;47.422;15.018;2023-05-14T15:34:01;10.50;99.90
23669;DHT22;12011;47.422;15.018;2023-05-14T15:36:31;10.50;99.90
23669;DHT22;12011;47.422;15.018;2023-05-14T15:39:03;10.50;99.90
23669;DHT22;12011;47.422;15.018;2023-05-14T15:41:35;10.60;99.90
23669;DHT22;12011;47.422;15.018;2023-05-14T15:44:05;10.70;99.90
23669;DHT22;12011;47.422;15.018;2023-05-14T15:46:34;10.50;99.90
23669;DHT22;12011;47.422;15.018;2023-05-14T15:49:04;10.50;99.90
23669;DHT22;12011;47.422;15.018;2023-05-14T15:51:36;10.50;99.90
23669;DHT22;12011;47.422;15.018;2023-05-14T15:54:09;10.60;99.90
23669;DHT22;12011;47.422;15.018;2023-05-14T15:56:38;10.60;99.90
23669;DHT22;12011;47.422;15.018;2023-05-14T15:59:08;10.50;99.90
23669;DHT22;12011;47.422;15.018;2023-05-14T16:01:39;10.50;99.90